< < Back
Terminal Aerodrome Forecast


Current Version              Previous Versions:   1  2  3  4  5  6  7  8  9  

Terminal Aerodrome Forecast

212
FTUS42 KCAE 310800 AAA
TAFCAE
TAF AMD
KCAE 310856Z 3109/0106 VRB03KT P6SM SKC
     FM311800 VRB05KT P6SM SCT050
     FM312100 28005KT P6SM VCSH OVC050
     FM010400 30008KT P6SM -SHRA OVC045=

Latest METAR

437
SAUS80 KWBC 311500
MTRCAE
METAR KCAE 311456Z 07003KT 10SM SCT030 SCT100 SCT220 15/08 A2992 RMK AO2
SLP131 VIRGA T01500083 58002


USA.gov is the U.S. government's official web portal to all federal, state and local government web resources and services.